sensor_id;sensor_type;location;lat;lon;timestamp;P1;durP1;ratioP1;P2;durP2;ratioP2
3997;SDS011;61314;53.444;9.902;2022-12-11T00:02:03;37.90;;;18.92;;
3997;SDS011;61314;53.444;9.902;2022-12-11T00:04:30;31.60;;;17.90;;
3997;SDS011;61314;53.444;9.902;2022-12-11T00:06:57;29.00;;;14.80;;
3997;SDS011;61314;53.444;9.902;2022-12-11T00:09:24;30.35;;;16.85;;
3997;SDS011;61314;53.444;9.902;2022-12-11T00:11:51;26.63;;;15.80;;
3997;SDS011;61314;53.444;9.902;2022-12-11T00:14:19;36.60;;;17.52;;
3997;SDS011;61314;53.444;9.902;2022-12-11T00:16:46;31.73;;;17.00;;
3997;SDS011;61314;53.444;9.902;2022-12-11T00:19:14;39.15;;;18.48;;
3997;SDS011;61314;53.444;9.902;2022-12-11T00:21:41;30.38;;;17.40;;
3997;SDS011;61314;53.444;9.902;2022-12-11T00:24:08;38.10;;;19.88;;
3997;SDS011;61314;53.444;9.902;2022-12-11T00:26:35;37.58;;;18.63;;
3997;SDS011;61314;53.444;9.902;2022-12-11T00:29:02;34.42;;;18.33;;
3997;SDS011;61314;53.444;9.902;2022-12-11T00:31:29;28.00;;;15.52;;
3997;SDS011;61314;53.444;9.902;2022-12-11T00:33:57;36.53;;;17.00;;
3997;SDS011;61314;53.444;9.902;2022-12-11T00:36:25;31.63;;;17.40;;
3997;SDS011;61314;53.444;9.902;2022-12-11T00:38:53;33.80;;;16.85;;
3997;SDS011;61314;53.444;9.902;2022-12-11T00:41:20;39.53;;;17.90;;
3997;SDS011;61314;53.444;9.902;2022-12-11T00:43:47;35.13;;;17.42;;
3997;SDS011;61314;53.444;9.902;2022-12-11T00:46:14;30.42;;;16.27;;
3997;SDS011;61314;53.444;9.902;2022-12-11T00:48:41;32.22;;;17.00;;
3997;SDS011;61314;53.444;9.902;2022-12-11T00:51:09;33.75;;;16.35;;
3997;SDS011;61314;53.444;9.902;2022-12-11T00:53:36;34.20;;;16.60;;
3997;SDS011;61314;53.444;9.902;2022-12-11T00:56:10;32.63;;;18.00;;
3997;SDS011;61314;53.444;9.902;2022-12-11T00:58:38;28.83;;;15.10;;
3997;SDS011;61314;53.444;9.902;2022-12-11T01:01:09;28.10;;;15.32;;
3997;SDS011;61314;53.444;9.902;2022-12-11T01:03:36;34.47;;;17.67;;
3997;SDS011;61314;53.444;9.902;2022-12-11T01:06:03;32.33;;;17.48;;
3997;SDS011;61314;53.444;9.902;2022-12-11T01:08:31;34.00;;;17.40;;
3997;SDS011;61314;53.444;9.902;2022-12-11T01:11:04;28.23;;;15.80;;
3997;SDS011;61314;53.444;9.902;2022-12-11T01:13:31;34.25;;;16.05;;
3997;SDS011;61314;53.444;9.902;2022-12-11T01:15:58;31.42;;;16.45;;
3997;SDS011;61314;53.444;9.902;2022-12-11T01:18:25;32.65;;;16.98;;
3997;SDS011;61314;53.444;9.902;2022-12-11T01:20:52;27.90;;;13.82;;
3997;SDS011;61314;53.444;9.902;2022-12-11T01:23:19;30.52;;;16.48;;
3997;SDS011;61314;53.444;9.902;2022-12-11T01:25:46;32.55;;;16.45;;
3997;SDS011;61314;53.444;9.902;2022-12-11T01:28:13;29.45;;;14.43;;
3997;SDS011;61314;53.444;9.902;2022-12-11T01:30:41;33.65;;;16.77;;
3997;SDS011;61314;53.444;9.902;2022-12-11T01:33:09;28.23;;;14.40;;
3997;SDS011;61314;53.444;9.902;2022-12-11T01:35:37;33.88;;;16.10;;
3997;SDS011;61314;53.444;9.902;2022-12-11T01:38:05;30.63;;;15.55;;
3997;SDS011;61314;53.444;9.902;2022-12-11T01:40:32;33.05;;;17.00;;
3997;SDS011;61314;53.444;9.902;2022-12-11T01:42:59;31.17;;;16.30;;
3997;SDS011;61314;53.444;9.902;2022-12-11T01:45:29;30.40;;;15.07;;
3997;SDS011;61314;53.444;9.902;2022-12-11T01:48:00;30.30;;;16.08;;
3997;SDS011;61314;53.444;9.902;2022-12-11T01:50:30;27.45;;;14.57;;
3997;SDS011;61314;53.444;9.902;2022-12-11T01:52:58;24.92;;;15.38;;
3997;SDS011;61314;53.444;9.902;2022-12-11T01:55:25;25.27;;;15.05;;
3997;SDS011;61314;53.444;9.902;2022-12-11T01:57:52;31.33;;;14.82;;
3997;SDS011;61314;53.444;9.902;2022-12-11T02:00:19;35.58;;;15.98;;
3997;SDS011;61314;53.444;9.902;2022-12-11T02:02:47;29.42;;;15.00;;
3997;SDS011;61314;53.444;9.902;2022-12-11T02:05:14;31.05;;;16.17;;
3997;SDS011;61314;53.444;9.902;2022-12-11T02:07:48;34.13;;;17.10;;
3997;SDS011;61314;53.444;9.902;2022-12-11T02:10:16;32.03;;;16.30;;
3997;SDS011;61314;53.444;9.902;2022-12-11T02:12:51;31.85;;;17.27;;
3997;SDS011;61314;53.444;9.902;2022-12-11T02:25:40;28.00;;;15.20;;
3997;SDS011;61314;53.444;9.902;2022-12-11T02:31:06;25.85;;;14.50;;
3997;SDS011;61314;53.444;9.902;2022-12-11T02:33:38;30.38;;;16.45;;
3997;SDS011;61314;53.444;9.902;2022-12-11T02:36:07;31.85;;;16.90;;
3997;SDS011;61314;53.444;9.902;2022-12-11T02:38:36;33.58;;;16.42;;
3997;SDS011;61314;53.444;9.902;2022-12-11T02:41:05;32.20;;;16.90;;
3997;SDS011;61314;53.444;9.902;2022-12-11T02:43:33;30.63;;;16.08;;
3997;SDS011;61314;53.444;9.902;2022-12-11T02:46:02;31.67;;;15.57;;
3997;SDS011;61314;53.444;9.902;2022-12-11T02:48:31;37.05;;;17.77;;
3997;SDS011;61314;53.444;9.902;2022-12-11T02:50:58;30.25;;;16.55;;
3997;SDS011;61314;53.444;9.902;2022-12-11T02:53:27;37.53;;;19.20;;
3997;SDS011;61314;53.444;9.902;2022-12-11T02:55:57;35.92;;;18.15;;
3997;SDS011;61314;53.444;9.902;2022-12-11T02:58:27;36.40;;;17.70;;
3997;SDS011;61314;53.444;9.902;2022-12-11T03:00:55;35.80;;;17.63;;
3997;SDS011;61314;53.444;9.902;2022-12-11T03:03:22;31.95;;;17.17;;
3997;SDS011;61314;53.444;9.902;2022-12-11T03:05:49;37.42;;;17.13;;
3997;SDS011;61314;53.444;9.902;2022-12-11T03:08:16;31.73;;;16.92;;
3997;SDS011;61314;53.444;9.902;2022-12-11T03:10:44;34.00;;;17.00;;
3997;SDS011;61314;53.444;9.902;2022-12-11T03:13:12;34.13;;;18.38;;
3997;SDS011;61314;53.444;9.902;2022-12-11T03:15:49;29.92;;;15.82;;
3997;SDS011;61314;53.444;9.902;2022-12-11T03:18:20;36.83;;;17.52;;
3997;SDS011;61314;53.444;9.902;2022-12-11T03:20:51;30.25;;;16.35;;
3997;SDS011;61314;53.444;9.902;2022-12-11T03:23:27;33.13;;;16.35;;
3997;SDS011;61314;53.444;9.902;2022-12-11T03:26:04;34.53;;;15.90;;
3997;SDS011;61314;53.444;9.902;2022-12-11T03:28:37;35.08;;;16.30;;
3997;SDS011;61314;53.444;9.902;2022-12-11T03:31:08;34.20;;;17.90;;
3997;SDS011;61314;53.444;9.902;2022-12-11T03:33:38;32.65;;;16.60;;
3997;SDS011;61314;53.444;9.902;2022-12-11T03:36:07;29.17;;;16.02;;
3997;SDS011;61314;53.444;9.902;2022-12-11T03:38:38;29.55;;;16.08;;
3997;SDS011;61314;53.444;9.902;2022-12-11T03:41:07;32.83;;;16.45;;
3997;SDS011;61314;53.444;9.902;2022-12-11T03:43:34;28.17;;;16.20;;
3997;SDS011;61314;53.444;9.902;2022-12-11T03:46:02;29.50;;;16.17;;
3997;SDS011;61314;53.444;9.902;2022-12-11T03:48:31;32.97;;;19.02;;
3997;SDS011;61314;53.444;9.902;2022-12-11T03:50:59;32.45;;;17.10;;
3997;SDS011;61314;53.444;9.902;2022-12-11T03:53:28;35.92;;;17.73;;
3997;SDS011;61314;53.444;9.902;2022-12-11T03:55:55;30.00;;;16.63;;
3997;SDS011;61314;53.444;9.902;2022-12-11T03:58:23;35.63;;;17.63;;
3997;SDS011;61314;53.444;9.902;2022-12-11T04:00:50;33.05;;;16.45;;
3997;SDS011;61314;53.444;9.902;2022-12-11T04:03:17;32.30;;;17.38;;
3997;SDS011;61314;53.444;9.902;2022-12-11T04:05:46;33.70;;;16.17;;
3997;SDS011;61314;53.444;9.902;2022-12-11T04:08:13;30.70;;;16.67;;
3997;SDS011;61314;53.444;9.902;2022-12-11T04:10:40;34.67;;;17.85;;
3997;SDS011;61314;53.444;9.902;2022-12-11T04:13:08;34.78;;;17.38;;
3997;SDS011;61314;53.444;9.902;2022-12-11T04:15:35;35.00;;;17.73;;
3997;SDS011;61314;53.444;9.902;2022-12-11T04:18:03;31.30;;;16.10;;
3997;SDS011;61314;53.444;9.902;2022-12-11T04:20:48;31.13;;;16.58;;
3997;SDS011;61314;53.444;9.902;2022-12-11T04:23:37;34.03;;;16.42;;
3997;SDS011;61314;53.444;9.902;2022-12-11T04:26:23;33.53;;;16.98;;
3997;SDS011;61314;53.444;9.902;2022-12-11T04:28:50;30.92;;;16.08;;
3997;SDS011;61314;53.444;9.902;2022-12-11T04:31:18;30.55;;;16.50;;
3997;SDS011;61314;53.444;9.902;2022-12-11T04:33:46;34.45;;;16.60;;
3997;SDS011;61314;53.444;9.902;2022-12-11T04:36:13;34.78;;;17.08;;
3997;SDS011;61314;53.444;9.902;2022-12-11T04:38:40;35.30;;;17.35;;
3997;SDS011;61314;53.444;9.902;2022-12-11T04:41:08;33.90;;;17.23;;
3997;SDS011;61314;53.444;9.902;2022-12-11T04:43:36;33.20;;;16.45;;
3997;SDS011;61314;53.444;9.902;2022-12-11T04:46:11;30.95;;;15.85;;
3997;SDS011;61314;53.444;9.902;2022-12-11T04:48:38;30.08;;;15.88;;
3997;SDS011;61314;53.444;9.902;2022-12-11T04:51:06;35.78;;;17.00;;
3997;SDS011;61314;53.444;9.902;2022-12-11T04:53:33;26.58;;;15.43;;
3997;SDS011;61314;53.444;9.902;2022-12-11T04:56:03;29.48;;;15.75;;
3997;SDS011;61314;53.444;9.902;2022-12-11T04:58:30;31.95;;;15.80;;
3997;SDS011;61314;53.444;9.902;2022-12-11T05:00:57;35.25;;;16.77;;
3997;SDS011;61314;53.444;9.902;2022-12-11T05:03:24;27.35;;;14.60;;
3997;SDS011;61314;53.444;9.902;2022-12-11T05:05:52;28.80;;;15.60;;
3997;SDS011;61314;53.444;9.902;2022-12-11T05:08:19;29.85;;;16.00;;
3997;SDS011;61314;53.444;9.902;2022-12-11T05:10:54;24.08;;;14.75;;
3997;SDS011;61314;53.444;9.902;2022-12-11T05:13:21;21.58;;;13.65;;
3997;SDS011;61314;53.444;9.902;2022-12-11T05:15:48;23.88;;;14.05;;
3997;SDS011;61314;53.444;9.902;2022-12-11T05:18:15;27.17;;;15.10;;
3997;SDS011;61314;53.444;9.902;2022-12-11T05:20:42;30.08;;;15.75;;
3997;SDS011;61314;53.444;9.902;2022-12-11T05:23:09;26.70;;;15.63;;
3997;SDS011;61314;53.444;9.902;2022-12-11T05:25:37;26.92;;;14.77;;
3997;SDS011;61314;53.444;9.902;2022-12-11T05:28:04;29.52;;;15.63;;
3997;SDS011;61314;53.444;9.902;2022-12-11T05:30:31;28.55;;;15.65;;
3997;SDS011;61314;53.444;9.902;2022-12-11T05:32:58;26.23;;;15.45;;
3997;SDS011;61314;53.444;9.902;2022-12-11T05:35:25;28.05;;;15.60;;
3997;SDS011;61314;53.444;9.902;2022-12-11T05:37:52;30.17;;;14.88;;
3997;SDS011;61314;53.444;9.902;2022-12-11T05:40:19;30.63;;;15.13;;
3997;SDS011;61314;53.444;9.902;2022-12-11T05:42:46;24.70;;;13.77;;
3997;SDS011;61314;53.444;9.902;2022-12-11T05:45:13;30.05;;;15.65;;
3997;SDS011;61314;53.444;9.902;2022-12-11T05:47:40;30.10;;;14.82;;
3997;SDS011;61314;53.444;9.902;2022-12-11T05:50:07;35.08;;;15.40;;
3997;SDS011;61314;53.444;9.902;2022-12-11T05:52:35;28.70;;;15.93;;
3997;SDS011;61314;53.444;9.902;2022-12-11T05:55:02;30.67;;;15.32;;
3997;SDS011;61314;53.444;9.902;2022-12-11T05:57:29;24.25;;;14.00;;
3997;SDS011;61314;53.444;9.902;2022-12-11T05:59:56;26.98;;;13.60;;
3997;SDS011;61314;53.444;9.902;2022-12-11T06:02:23;28.88;;;13.65;;
3997;SDS011;61314;53.444;9.902;2022-12-11T06:04:51;25.20;;;12.90;;
3997;SDS011;61314;53.444;9.902;2022-12-11T06:07:18;26.40;;;13.82;;
3997;SDS011;61314;53.444;9.902;2022-12-11T06:09:44;28.95;;;14.23;;
3997;SDS011;61314;53.444;9.902;2022-12-11T06:12:11;19.23;;;12.32;;
3997;SDS011;61314;53.444;9.902;2022-12-11T06:14:38;24.73;;;13.00;;
3997;SDS011;61314;53.444;9.902;2022-12-11T06:17:05;25.98;;;13.77;;
3997;SDS011;61314;53.444;9.902;2022-12-11T06:19:32;21.92;;;13.05;;
3997;SDS011;61314;53.444;9.902;2022-12-11T06:22:02;21.75;;;12.15;;
3997;SDS011;61314;53.444;9.902;2022-12-11T06:24:29;24.08;;;12.52;;
3997;SDS011;61314;53.444;9.902;2022-12-11T06:26:56;20.33;;;12.05;;
3997;SDS011;61314;53.444;9.902;2022-12-11T06:29:24;25.05;;;13.38;;
3997;SDS011;61314;53.444;9.902;2022-12-11T06:31:51;25.58;;;13.30;;
3997;SDS011;61314;53.444;9.902;2022-12-11T06:34:18;24.13;;;11.55;;
3997;SDS011;61314;53.444;9.902;2022-12-11T06:36:45;24.77;;;12.27;;
3997;SDS011;61314;53.444;9.902;2022-12-11T06:39:12;30.02;;;13.48;;
3997;SDS011;61314;53.444;9.902;2022-12-11T06:41:39;23.52;;;12.82;;
3997;SDS011;61314;53.444;9.902;2022-12-11T06:44:06;22.70;;;12.70;;
3997;SDS011;61314;53.444;9.902;2022-12-11T06:46:33;28.92;;;12.45;;
3997;SDS011;61314;53.444;9.902;2022-12-11T06:49:00;25.63;;;12.50;;
3997;SDS011;61314;53.444;9.902;2022-12-11T06:51:27;23.30;;;11.73;;
3997;SDS011;61314;53.444;9.902;2022-12-11T06:53:55;19.70;;;11.48;;
3997;SDS011;61314;53.444;9.902;2022-12-11T06:56:23;23.42;;;12.20;;
3997;SDS011;61314;53.444;9.902;2022-12-11T06:58:50;18.67;;;11.05;;
3997;SDS011;61314;53.444;9.902;2022-12-11T07:01:21;24.05;;;11.65;;
3997;SDS011;61314;53.444;9.902;2022-12-11T07:03:51;23.73;;;12.65;;
3997;SDS011;61314;53.444;9.902;2022-12-11T07:06:18;23.92;;;11.10;;
3997;SDS011;61314;53.444;9.902;2022-12-11T07:08:45;25.30;;;13.07;;
3997;SDS011;61314;53.444;9.902;2022-12-11T07:11:13;26.75;;;12.48;;
3997;SDS011;61314;53.444;9.902;2022-12-11T07:13:40;22.27;;;11.57;;
3997;SDS011;61314;53.444;9.902;2022-12-11T07:16:08;25.63;;;11.82;;
3997;SDS011;61314;53.444;9.902;2022-12-11T07:18:36;24.80;;;13.23;;
3997;SDS011;61314;53.444;9.902;2022-12-11T07:21:04;22.83;;;12.98;;
3997;SDS011;61314;53.444;9.902;2022-12-11T07:23:32;22.05;;;11.93;;
3997;SDS011;61314;53.444;9.902;2022-12-11T07:26:03;19.50;;;11.77;;
3997;SDS011;61314;53.444;9.902;2022-12-11T07:28:31;19.00;;;10.93;;
3997;SDS011;61314;53.444;9.902;2022-12-11T07:30:58;28.05;;;13.88;;
3997;SDS011;61314;53.444;9.902;2022-12-11T07:33:25;19.55;;;10.98;;
3997;SDS011;61314;53.444;9.902;2022-12-11T07:35:52;24.50;;;11.75;;
3997;SDS011;61314;53.444;9.902;2022-12-11T07:38:19;24.70;;;14.13;;
3997;SDS011;61314;53.444;9.902;2022-12-11T07:40:46;23.33;;;13.20;;
3997;SDS011;61314;53.444;9.902;2022-12-11T07:43:13;22.88;;;12.52;;
3997;SDS011;61314;53.444;9.902;2022-12-11T07:45:40;26.33;;;14.00;;
3997;SDS011;61314;53.444;9.902;2022-12-11T07:48:07;33.97;;;16.83;;
3997;SDS011;61314;53.444;9.902;2022-12-11T07:50:34;29.60;;;15.18;;
3997;SDS011;61314;53.444;9.902;2022-12-11T07:53:05;26.20;;;12.68;;
3997;SDS011;61314;53.444;9.902;2022-12-11T07:55:32;22.95;;;12.77;;
3997;SDS011;61314;53.444;9.902;2022-12-11T07:57:59;20.77;;;11.77;;
3997;SDS011;61314;53.444;9.902;2022-12-11T08:00:27;19.85;;;11.82;;
3997;SDS011;61314;53.444;9.902;2022-12-11T08:02:54;27.50;;;11.82;;
3997;SDS011;61314;53.444;9.902;2022-12-11T08:05:21;21.30;;;12.45;;
3997;SDS011;61314;53.444;9.902;2022-12-11T08:07:48;23.73;;;12.23;;
3997;SDS011;61314;53.444;9.902;2022-12-11T08:10:15;24.73;;;12.13;;
3997;SDS011;61314;53.444;9.902;2022-12-11T08:12:42;25.42;;;12.60;;
3997;SDS011;61314;53.444;9.902;2022-12-11T08:15:09;22.77;;;13.30;;
3997;SDS011;61314;53.444;9.902;2022-12-11T08:17:37;28.60;;;10.93;;
3997;SDS011;61314;53.444;9.902;2022-12-11T08:20:05;23.25;;;12.30;;
3997;SDS011;61314;53.444;9.902;2022-12-11T08:22:33;21.25;;;12.50;;
3997;SDS011;61314;53.444;9.902;2022-12-11T08:25:00;30.63;;;13.10;;
3997;SDS011;61314;53.444;9.902;2022-12-11T08:27:27;19.70;;;11.60;;
3997;SDS011;61314;53.444;9.902;2022-12-11T08:29:54;24.98;;;11.88;;
3997;SDS011;61314;53.444;9.902;2022-12-11T08:32:21;18.58;;;10.43;;
3997;SDS011;61314;53.444;9.902;2022-12-11T08:34:49;26.67;;;12.55;;
3997;SDS011;61314;53.444;9.902;2022-12-11T08:37:17;23.40;;;12.30;;
3997;SDS011;61314;53.444;9.902;2022-12-11T08:39:44;20.60;;;11.52;;
3997;SDS011;61314;53.444;9.902;2022-12-11T08:42:12;27.25;;;12.63;;
3997;SDS011;61314;53.444;9.902;2022-12-11T08:44:39;28.40;;;13.70;;
3997;SDS011;61314;53.444;9.902;2022-12-11T08:47:06;38.90;;;17.95;;
3997;SDS011;61314;53.444;9.902;2022-12-11T08:49:35;48.97;;;22.70;;
3997;SDS011;61314;53.444;9.902;2022-12-11T08:52:03;46.63;;;22.20;;
3997;SDS011;61314;53.444;9.902;2022-12-11T08:54:30;34.78;;;16.70;;
3997;SDS011;61314;53.444;9.902;2022-12-11T08:56:57;29.85;;;16.40;;
3997;SDS011;61314;53.444;9.902;2022-12-11T08:59:24;31.20;;;13.95;;
3997;SDS011;61314;53.444;9.902;2022-12-11T09:01:53;22.67;;;12.60;;
3997;SDS011;61314;53.444;9.902;2022-12-11T09:04:20;24.95;;;12.73;;
3997;SDS011;61314;53.444;9.902;2022-12-11T09:06:47;24.95;;;13.27;;
3997;SDS011;61314;53.444;9.902;2022-12-11T09:09:14;23.45;;;11.93;;
3997;SDS011;61314;53.444;9.902;2022-12-11T09:11:42;22.77;;;11.85;;
3997;SDS011;61314;53.444;9.902;2022-12-11T09:14:09;22.83;;;12.15;;
3997;SDS011;61314;53.444;9.902;2022-12-11T09:16:37;18.40;;;11.15;;
3997;SDS011;61314;53.444;9.902;2022-12-11T09:19:05;19.20;;;11.80;;
3997;SDS011;61314;53.444;9.902;2022-12-11T09:21:32;21.25;;;11.50;;
3997;SDS011;61314;53.444;9.902;2022-12-11T09:24:00;31.58;;;16.98;;
3997;SDS011;61314;53.444;9.902;2022-12-11T09:26:27;35.08;;;16.90;;
3997;SDS011;61314;53.444;9.902;2022-12-11T09:28:55;28.13;;;14.20;;
3997;SDS011;61314;53.444;9.902;2022-12-11T09:31:26;31.67;;;14.38;;
3997;SDS011;61314;53.444;9.902;2022-12-11T09:33:54;24.02;;;12.23;;
3997;SDS011;61314;53.444;9.902;2022-12-11T09:36:22;22.52;;;11.40;;
3997;SDS011;61314;53.444;9.902;2022-12-11T09:38:49;26.17;;;13.45;;
3997;SDS011;61314;53.444;9.902;2022-12-11T09:43:48;21.63;;;13.43;;
3997;SDS011;61314;53.444;9.902;2022-12-11T09:46:36;21.08;;;11.57;;
3997;SDS011;61314;53.444;9.902;2022-12-11T09:49:04;16.60;;;10.32;;
3997;SDS011;61314;53.444;9.902;2022-12-11T09:52:16;26.52;;;13.32;;
3997;SDS011;61314;53.444;9.902;2022-12-11T09:54:51;39.35;;;17.17;;
3997;SDS011;61314;53.444;9.902;2022-12-11T09:57:25;28.58;;;15.13;;
3997;SDS011;61314;53.444;9.902;2022-12-11T10:02:42;17.20;;;10.55;;
3997;SDS011;61314;53.444;9.902;2022-12-11T10:05:31;20.60;;;11.43;;
3997;SDS011;61314;53.444;9.902;2022-12-11T10:08:20;20.38;;;11.27;;
3997;SDS011;61314;53.444;9.902;2022-12-11T10:11:13;16.45;;;11.05;;
3997;SDS011;61314;53.444;9.902;2022-12-11T10:16:44;16.40;;;10.00;;
3997;SDS011;61314;53.444;9.902;2022-12-11T10:19:25;18.45;;;10.65;;
3997;SDS011;61314;53.444;9.902;2022-12-11T10:21:54;15.70;;;9.25;;
3997;SDS011;61314;53.444;9.902;2022-12-11T10:24:36;15.98;;;9.65;;
3997;SDS011;61314;53.444;9.902;2022-12-11T10:27:30;15.80;;;9.77;;
3997;SDS011;61314;53.444;9.902;2022-12-11T10:35:42;23.30;;;11.02;;
3997;SDS011;61314;53.444;9.902;2022-12-11T10:38:14;24.00;;;12.23;;
3997;SDS011;61314;53.444;9.902;2022-12-11T10:41:04;19.23;;;10.57;;
3997;SDS011;61314;53.444;9.902;2022-12-11T10:43:43;17.48;;;10.80;;
3997;SDS011;61314;53.444;9.902;2022-12-11T10:46:15;19.13;;;10.65;;
3997;SDS011;61314;53.444;9.902;2022-12-11T10:48:50;22.95;;;14.13;;
3997;SDS011;61314;53.444;9.902;2022-12-11T10:54:07;16.10;;;10.75;;
3997;SDS011;61314;53.444;9.902;2022-12-11T10:56:44;16.88;;;9.82;;
3997;SDS011;61314;53.444;9.902;2022-12-11T10:59:15;18.77;;;10.32;;
3997;SDS011;61314;53.444;9.902;2022-12-11T11:01:49;18.13;;;10.85;;
3997;SDS011;61314;53.444;9.902;2022-12-11T11:04:29;18.65;;;11.57;;
3997;SDS011;61314;53.444;9.902;2022-12-11T11:12:38;21.27;;;12.88;;
3997;SDS011;61314;53.444;9.902;2022-12-11T11:15:21;17.38;;;11.25;;
3997;SDS011;61314;53.444;9.902;2022-12-11T11:17:53;17.55;;;10.75;;
3997;SDS011;61314;53.444;9.902;2022-12-11T11:20:23;18.90;;;10.85;;
3997;SDS011;61314;53.444;9.902;2022-12-11T11:22:55;19.45;;;10.85;;
3997;SDS011;61314;53.444;9.902;2022-12-11T11:25:24;18.08;;;10.60;;
3997;SDS011;61314;53.444;9.902;2022-12-11T11:27:56;22.35;;;12.13;;
3997;SDS011;61314;53.444;9.902;2022-12-11T11:30:34;20.33;;;10.88;;
3997;SDS011;61314;53.444;9.902;2022-12-11T11:33:17;21.27;;;11.63;;
3997;SDS011;61314;53.444;9.902;2022-12-11T11:35:59;19.75;;;11.68;;
3997;SDS011;61314;53.444;9.902;2022-12-11T11:38:31;19.58;;;10.88;;
3997;SDS011;61314;53.444;9.902;2022-12-11T11:43:43;19.40;;;11.00;;
3997;SDS011;61314;53.444;9.902;2022-12-11T11:52:11;18.02;;;11.48;;
3997;SDS011;61314;53.444;9.902;2022-12-11T11:57:39;20.48;;;12.57;;
3997;SDS011;61314;53.444;9.902;2022-12-11T12:00:16;18.27;;;11.32;;
3997;SDS011;61314;53.444;9.902;2022-12-11T12:02:50;22.10;;;11.32;;
3997;SDS011;61314;53.444;9.902;2022-12-11T12:05:47;18.60;;;11.00;;
3997;SDS011;61314;53.444;9.902;2022-12-11T12:08:22;20.77;;;11.60;;
3997;SDS011;61314;53.444;9.902;2022-12-11T12:11:04;25.83;;;11.30;;
3997;SDS011;61314;53.444;9.902;2022-12-11T12:19:23;19.63;;;10.63;;
3997;SDS011;61314;53.444;9.902;2022-12-11T12:22:15;18.50;;;10.63;;
3997;SDS011;61314;53.444;9.902;2022-12-11T12:28:04;20.63;;;11.15;;
3997;SDS011;61314;53.444;9.902;2022-12-11T12:30:54;20.02;;;11.13;;
3997;SDS011;61314;53.444;9.902;2022-12-11T12:36:05;20.23;;;10.52;;
3997;SDS011;61314;53.444;9.902;2022-12-11T12:39:13;19.33;;;11.48;;
3997;SDS011;61314;53.444;9.902;2022-12-11T12:42:13;23.08;;;12.13;;
3997;SDS011;61314;53.444;9.902;2022-12-11T12:44:58;24.25;;;12.93;;
3997;SDS011;61314;53.444;9.902;2022-12-11T12:47:33;21.77;;;12.43;;
3997;SDS011;61314;53.444;9.902;2022-12-11T12:50:01;21.85;;;12.40;;
3997;SDS011;61314;53.444;9.902;2022-12-11T12:54:57;16.38;;;11.43;;
3997;SDS011;61314;53.444;9.902;2022-12-11T12:57:45;21.42;;;11.68;;
3997;SDS011;61314;53.444;9.902;2022-12-11T13:00:25;17.92;;;10.57;;
3997;SDS011;61314;53.444;9.902;2022-12-11T13:02:53;21.95;;;11.00;;
3997;SDS011;61314;53.444;9.902;2022-12-11T13:05:25;19.17;;;11.27;;
3997;SDS011;61314;53.444;9.902;2022-12-11T13:07:55;27.38;;;12.40;;
3997;SDS011;61314;53.444;9.902;2022-12-11T13:10:25;22.17;;;11.05;;
3997;SDS011;61314;53.444;9.902;2022-12-11T13:12:56;17.98;;;11.55;;
3997;SDS011;61314;53.444;9.902;2022-12-11T13:15:40;20.75;;;12.00;;
3997;SDS011;61314;53.444;9.902;2022-12-11T13:21:00;22.40;;;12.32;;
3997;SDS011;61314;53.444;9.902;2022-12-11T13:23:29;22.27;;;11.38;;
3997;SDS011;61314;53.444;9.902;2022-12-11T13:26:01;24.17;;;11.23;;
3997;SDS011;61314;53.444;9.902;2022-12-11T13:28:33;21.48;;;11.07;;
3997;SDS011;61314;53.444;9.902;2022-12-11T13:33:44;20.60;;;11.10;;
3997;SDS011;61314;53.444;9.902;2022-12-11T13:38:51;20.27;;;11.35;;
3997;SDS011;61314;53.444;9.902;2022-12-11T13:41:31;32.55;;;13.60;;
3997;SDS011;61314;53.444;9.902;2022-12-11T13:44:02;20.20;;;10.80;;
3997;SDS011;61314;53.444;9.902;2022-12-11T13:46:30;23.67;;;12.13;;
3997;SDS011;61314;53.444;9.902;2022-12-11T13:49:02;28.10;;;13.32;;
3997;SDS011;61314;53.444;9.902;2022-12-11T13:51:32;28.10;;;12.48;;
3997;SDS011;61314;53.444;9.902;2022-12-11T13:54:02;22.75;;;12.05;;
3997;SDS011;61314;53.444;9.902;2022-12-11T13:59:42;22.15;;;12.52;;
3997;SDS011;61314;53.444;9.902;2022-12-11T14:05:02;25.73;;;12.07;;
3997;SDS011;61314;53.444;9.902;2022-12-11T14:07:36;21.90;;;11.10;;
3997;SDS011;61314;53.444;9.902;2022-12-11T14:10:07;21.85;;;10.80;;
3997;SDS011;61314;53.444;9.902;2022-12-11T14:12:46;19.83;;;11.90;;
3997;SDS011;61314;53.444;9.902;2022-12-11T14:15:20;20.98;;;10.82;;
3997;SDS011;61314;53.444;9.902;2022-12-11T14:17:47;16.88;;;11.45;;
3997;SDS011;61314;53.444;9.902;2022-12-11T14:20:27;20.92;;;11.32;;
3997;SDS011;61314;53.444;9.902;2022-12-11T14:25:42;28.63;;;12.90;;
3997;SDS011;61314;53.444;9.902;2022-12-11T14:28:21;24.55;;;12.35;;
3997;SDS011;61314;53.444;9.902;2022-12-11T14:30:56;21.98;;;13.60;;
3997;SDS011;61314;53.444;9.902;2022-12-11T14:33:26;24.88;;;12.48;;
3997;SDS011;61314;53.444;9.902;2022-12-11T14:35:57;31.73;;;14.80;;
3997;SDS011;61314;53.444;9.902;2022-12-11T14:38:29;27.90;;;14.75;;
3997;SDS011;61314;53.444;9.902;2022-12-11T14:41:02;23.95;;;13.27;;
3997;SDS011;61314;53.444;9.902;2022-12-11T14:43:37;28.80;;;13.93;;
3997;SDS011;61314;53.444;9.902;2022-12-11T14:46:15;25.27;;;13.43;;
3997;SDS011;61314;53.444;9.902;2022-12-11T14:48:50;30.58;;;13.52;;
3997;SDS011;61314;53.444;9.902;2022-12-11T14:51:27;33.95;;;14.52;;
3997;SDS011;61314;53.444;9.902;2022-12-11T14:53:58;25.33;;;13.25;;
3997;SDS011;61314;53.444;9.902;2022-12-11T14:56:26;26.25;;;13.43;;
3997;SDS011;61314;53.444;9.902;2022-12-11T14:58:59;31.48;;;15.35;;
3997;SDS011;61314;53.444;9.902;2022-12-11T15:01:35;28.60;;;14.95;;
3997;SDS011;61314;53.444;9.902;2022-12-11T15:04:14;30.42;;;14.63;;
3997;SDS011;61314;53.444;9.902;2022-12-11T15:06:50;30.55;;;16.17;;
3997;SDS011;61314;53.444;9.902;2022-12-11T15:11:52;34.60;;;17.88;;
3997;SDS011;61314;53.444;9.902;2022-12-11T15:14:25;40.33;;;18.90;;
3997;SDS011;61314;53.444;9.902;2022-12-11T15:16:53;27.00;;;14.77;;
3997;SDS011;61314;53.444;9.902;2022-12-11T15:19:23;32.70;;;15.20;;
3997;SDS011;61314;53.444;9.902;2022-12-11T15:22:03;32.53;;;16.70;;
3997;SDS011;61314;53.444;9.902;2022-12-11T15:24:41;28.48;;;15.77;;
3997;SDS011;61314;53.444;9.902;2022-12-11T15:32:45;27.10;;;15.40;;
3997;SDS011;61314;53.444;9.902;2022-12-11T15:35:24;33.35;;;15.55;;
3997;SDS011;61314;53.444;9.902;2022-12-11T15:37:53;31.42;;;15.80;;
3997;SDS011;61314;53.444;9.902;2022-12-11T15:40:21;33.63;;;16.25;;
3997;SDS011;61314;53.444;9.902;2022-12-11T15:42:48;35.88;;;17.65;;
3997;SDS011;61314;53.444;9.902;2022-12-11T15:45:19;31.30;;;16.55;;
3997;SDS011;61314;53.444;9.902;2022-12-11T15:47:47;27.83;;;14.90;;
3997;SDS011;61314;53.444;9.902;2022-12-11T15:52:46;27.23;;;15.27;;
3997;SDS011;61314;53.444;9.902;2022-12-11T15:55:15;26.33;;;15.48;;
3997;SDS011;61314;53.444;9.902;2022-12-11T15:57:46;31.25;;;14.68;;
3997;SDS011;61314;53.444;9.902;2022-12-11T16:00:16;27.73;;;13.90;;
3997;SDS011;61314;53.444;9.902;2022-12-11T16:02:44;26.27;;;13.10;;
3997;SDS011;61314;53.444;9.902;2022-12-11T16:05:11;25.27;;;13.02;;
3997;SDS011;61314;53.444;9.902;2022-12-11T16:07:39;28.15;;;14.73;;
3997;SDS011;61314;53.444;9.902;2022-12-11T16:10:07;26.88;;;15.30;;
3997;SDS011;61314;53.444;9.902;2022-12-11T16:12:39;30.95;;;17.65;;
3997;SDS011;61314;53.444;9.902;2022-12-11T16:15:05;38.58;;;19.80;;
3997;SDS011;61314;53.444;9.902;2022-12-11T16:17:32;38.08;;;19.67;;
3997;SDS011;61314;53.444;9.902;2022-12-11T16:19:59;31.15;;;17.63;;
3997;SDS011;61314;53.444;9.902;2022-12-11T16:22:25;28.55;;;17.40;;
3997;SDS011;61314;53.444;9.902;2022-12-11T16:24:53;27.85;;;14.45;;